This is the latest recevied weather packets stored in our database for station/object EA1URT-13. If no packets are shown the sender has not sent any weather packets the latest 1 day(s).
| Time | Temp. | Humidity | Pressure | Rain* | Wind** | Luminosity | Snow |
|---|---|---|---|---|---|---|---|
| 1778089846 | 37.22° C | 20% | 1012.4 hPa | - | - | - | - |
| 1778086253 | 38.89° C | 20% | 1012.6 hPa | - | - | - | - |
| 1778082653 | 33.89° C | 25% | 1012.8 hPa | - | - | - | - |
| 1778080245 | 37.22° C | 23% | 1013.4 hPa | - | - | - | - |
| 1778077845 | 25.56° C | 42% | 1013.7 hPa | - | - | - | - |
| 1778076645 | 23.89° C | 45% | 1013.8 hPa | - | - | - | - |
| 1778074245 | 21.67° C | 50% | 1014 hPa | - | - | - | - |
| 1778073045 | 21.67° C | 49% | 1014 hPa | - | - | - | - |
| 1778071853 | 24.44° C | 41% | 1014.2 hPa | - | - | - | - |
| 1778068253 | 22.78° C | 42% | 1014.8 hPa | - | - | - | - |
| 1778065844 | 21.67° C | 47% | 1015.1 hPa | - | - | - | - |
| 1778064653 | 21.67° C | 48% | 1015.3 hPa | - | - | - | - |
| 1778063444 | 20.56° C | 50% | 1015.4 hPa | - | - | - | - |
| 1778062244 | 20.56° C | 55% | 1015.5 hPa | - | - | - | - |
| 1778061044 | 20° C | 73% | 1015.5 hPa | - | - | - | - |
| 1778059844 | 17.78° C | 99% | 1015.6 hPa | - | - | - | - |
| 1778053843 | 13.33° C | 100% | 1015.5 hPa | - | - | - | - |
| 1778052643 | 12.78° C | 100% | 1015.6 hPa | - | - | - | - |
| 1778051443 | 12.78° C | 100% | 1015.7 hPa | - | - | - | - |
| 1778049043 | 12.22° C | 100% | 1015.5 hPa | - | - | - | - |
| 1778047843 | 11.67° C | 100% | 1015.3 hPa | - | - | - | - |
| 1778045443 | 11.11° C | 100% | 1015.2 hPa | - | - | - | - |
| 1778044243 | 11.67° C | 100% | 1015 hPa | - | - | - | - |
| 1778037042 | 11.67° C | 100% | 1015.3 hPa | - | - | - | - |
| 1778035845 | 12.22° C | 100% | 1015.3 hPa | - | - | - | - |
* Rain since midnight (hover to see other rain measurements)
** Current wind speed in m/s (hover to see current wind gust speed)